sensor_id;sensor_type;location;lat;lon;timestamp;P1;durP1;ratioP1;P2;durP2;ratioP2
13303;SDS011;6720;51.958;4.540;2023-02-28T00:01:31;6.40;;;4.87;;
13303;SDS011;6720;51.958;4.540;2023-02-28T00:03:57;7.77;;;4.67;;
13303;SDS011;6720;51.958;4.540;2023-02-28T00:06:23;4.27;;;3.70;;
13303;SDS011;6720;51.958;4.540;2023-02-28T00:08:49;5.07;;;4.30;;
13303;SDS011;6720;51.958;4.540;2023-02-28T00:11:15;5.70;;;4.20;;
13303;SDS011;6720;51.958;4.540;2023-02-28T00:13:42;5.00;;;3.93;;
13303;SDS011;6720;51.958;4.540;2023-02-28T00:16:17;5.30;;;4.30;;
13303;SDS011;6720;51.958;4.540;2023-02-28T00:18:44;6.33;;;4.13;;
13303;SDS011;6720;51.958;4.540;2023-02-28T00:21:09;5.80;;;4.03;;
13303;SDS011;6720;51.958;4.540;2023-02-28T00:23:35;7.63;;;4.30;;
13303;SDS011;6720;51.958;4.540;2023-02-28T00:26:01;7.13;;;4.10;;
13303;SDS011;6720;51.958;4.540;2023-02-28T00:28:27;10.27;;;6.33;;
13303;SDS011;6720;51.958;4.540;2023-02-28T00:30:52;5.60;;;4.20;;
13303;SDS011;6720;51.958;4.540;2023-02-28T00:33:18;7.67;;;5.20;;
13303;SDS011;6720;51.958;4.540;2023-02-28T00:35:43;8.10;;;4.33;;
13303;SDS011;6720;51.958;4.540;2023-02-28T00:38:11;5.33;;;3.67;;
13303;SDS011;6720;51.958;4.540;2023-02-28T00:40:46;5.50;;;4.13;;
13303;SDS011;6720;51.958;4.540;2023-02-28T00:43:29;4.17;;;3.40;;
13303;SDS011;6720;51.958;4.540;2023-02-28T00:45:55;4.97;;;3.63;;
13303;SDS011;6720;51.958;4.540;2023-02-28T00:48:21;5.60;;;3.73;;
13303;SDS011;6720;51.958;4.540;2023-02-28T00:50:48;8.40;;;6.13;;
13303;SDS011;6720;51.958;4.540;2023-02-28T00:53:14;7.70;;;4.27;;
13303;SDS011;6720;51.958;4.540;2023-02-28T00:55:40;5.63;;;4.00;;
13303;SDS011;6720;51.958;4.540;2023-02-28T00:58:05;5.43;;;4.10;;
13303;SDS011;6720;51.958;4.540;2023-02-28T01:00:31;19.53;;;11.03;;
13303;SDS011;6720;51.958;4.540;2023-02-28T01:02:56;5.67;;;4.00;;
13303;SDS011;6720;51.958;4.540;2023-02-28T01:05:23;6.37;;;3.37;;
13303;SDS011;6720;51.958;4.540;2023-02-28T01:07:48;6.33;;;4.33;;
13303;SDS011;6720;51.958;4.540;2023-02-28T01:10:14;3.93;;;3.40;;
13303;SDS011;6720;51.958;4.540;2023-02-28T01:12:39;4.83;;;3.70;;
13303;SDS011;6720;51.958;4.540;2023-02-28T01:15:05;5.57;;;3.40;;
13303;SDS011;6720;51.958;4.540;2023-02-28T01:17:31;4.60;;;3.50;;
13303;SDS011;6720;51.958;4.540;2023-02-28T01:19:56;13.77;;;8.50;;
13303;SDS011;6720;51.958;4.540;2023-02-28T01:22:21;15.30;;;8.23;;
13303;SDS011;6720;51.958;4.540;2023-02-28T01:24:47;4.50;;;3.30;;
13303;SDS011;6720;51.958;4.540;2023-02-28T01:27:13;6.30;;;3.60;;
13303;SDS011;6720;51.958;4.540;2023-02-28T01:29:38;5.80;;;3.60;;
13303;SDS011;6720;51.958;4.540;2023-02-28T01:32:04;10.53;;;5.00;;
13303;SDS011;6720;51.958;4.540;2023-02-28T01:34:29;6.20;;;3.73;;
13303;SDS011;6720;51.958;4.540;2023-02-28T01:36:54;8.27;;;3.50;;
13303;SDS011;6720;51.958;4.540;2023-02-28T01:39:20;5.30;;;3.40;;
13303;SDS011;6720;51.958;4.540;2023-02-28T01:41:45;9.23;;;4.23;;
13303;SDS011;6720;51.958;4.540;2023-02-28T01:47:14;8.17;;;5.40;;
13303;SDS011;6720;51.958;4.540;2023-02-28T01:49:40;5.70;;;3.93;;
13303;SDS011;6720;51.958;4.540;2023-02-28T01:52:05;11.47;;;7.30;;
13303;SDS011;6720;51.958;4.540;2023-02-28T01:54:33;4.77;;;3.60;;
13303;SDS011;6720;51.958;4.540;2023-02-28T01:57:06;9.07;;;5.30;;
13303;SDS011;6720;51.958;4.540;2023-02-28T01:59:36;5.37;;;3.90;;
13303;SDS011;6720;51.958;4.540;2023-02-28T02:02:16;6.10;;;4.30;;
13303;SDS011;6720;51.958;4.540;2023-02-28T02:05:06;5.73;;;3.73;;
13303;SDS011;6720;51.958;4.540;2023-02-28T02:07:38;7.40;;;4.10;;
13303;SDS011;6720;51.958;4.540;2023-02-28T02:10:19;4.63;;;3.83;;
13303;SDS011;6720;51.958;4.540;2023-02-28T02:27:16;5.50;;;4.37;;
13303;SDS011;6720;51.958;4.540;2023-02-28T02:32:47;6.70;;;4.00;;
13303;SDS011;6720;51.958;4.540;2023-02-28T02:46:45;7.73;;;3.90;;
13303;SDS011;6720;51.958;4.540;2023-02-28T02:49:19;6.43;;;4.17;;
13303;SDS011;6720;51.958;4.540;2023-02-28T02:51:49;8.87;;;4.73;;
13303;SDS011;6720;51.958;4.540;2023-02-28T02:54:24;6.03;;;4.10;;
13303;SDS011;6720;51.958;4.540;2023-02-28T02:56:54;5.20;;;4.20;;
13303;SDS011;6720;51.958;4.540;2023-02-28T02:59:23;4.83;;;3.70;;
13303;SDS011;6720;51.958;4.540;2023-02-28T03:01:51;4.20;;;3.80;;
13303;SDS011;6720;51.958;4.540;2023-02-28T03:04:21;4.93;;;3.80;;
13303;SDS011;6720;51.958;4.540;2023-02-28T03:06:48;8.43;;;3.93;;
13303;SDS011;6720;51.958;4.540;2023-02-28T03:09:19;6.83;;;4.20;;
13303;SDS011;6720;51.958;4.540;2023-02-28T03:11:48;6.33;;;4.63;;
13303;SDS011;6720;51.958;4.540;2023-02-28T03:22:50;7.47;;;4.83;;
13303;SDS011;6720;51.958;4.540;2023-02-28T03:25:21;8.50;;;5.47;;
13303;SDS011;6720;51.958;4.540;2023-02-28T03:35:41;5.77;;;4.37;;
13303;SDS011;6720;51.958;4.540;2023-02-28T03:40:55;7.00;;;4.80;;
13303;SDS011;6720;51.958;4.540;2023-02-28T03:43:27;6.30;;;4.63;;
13303;SDS011;6720;51.958;4.540;2023-02-28T03:45:57;7.57;;;4.73;;
13303;SDS011;6720;51.958;4.540;2023-02-28T03:48:31;8.40;;;4.60;;
13303;SDS011;6720;51.958;4.540;2023-02-28T03:51:03;6.67;;;4.50;;
13303;SDS011;6720;51.958;4.540;2023-02-28T03:53:35;6.17;;;4.67;;
13303;SDS011;6720;51.958;4.540;2023-02-28T03:58:47;5.50;;;5.00;;
13303;SDS011;6720;51.958;4.540;2023-02-28T04:03:53;8.20;;;5.77;;
13303;SDS011;6720;51.958;4.540;2023-02-28T04:06:19;6.07;;;4.73;;
13303;SDS011;6720;51.958;4.540;2023-02-28T04:08:46;8.10;;;5.10;;
13303;SDS011;6720;51.958;4.540;2023-02-28T04:11:23;7.03;;;4.50;;
13303;SDS011;6720;51.958;4.540;2023-02-28T04:13:52;5.80;;;4.70;;
13303;SDS011;6720;51.958;4.540;2023-02-28T04:16:18;9.57;;;7.13;;
13303;SDS011;6720;51.958;4.540;2023-02-28T04:18:44;5.97;;;4.47;;
13303;SDS011;6720;51.958;4.540;2023-02-28T04:21:10;9.03;;;6.10;;
13303;SDS011;6720;51.958;4.540;2023-02-28T04:23:36;7.13;;;5.47;;
13303;SDS011;6720;51.958;4.540;2023-02-28T04:26:01;6.43;;;5.17;;
13303;SDS011;6720;51.958;4.540;2023-02-28T04:28:27;7.67;;;5.93;;
13303;SDS011;6720;51.958;4.540;2023-02-28T04:30:56;6.63;;;5.03;;
13303;SDS011;6720;51.958;4.540;2023-02-28T04:33:22;7.27;;;5.10;;
13303;SDS011;6720;51.958;4.540;2023-02-28T04:35:47;8.87;;;6.50;;
13303;SDS011;6720;51.958;4.540;2023-02-28T04:38:13;8.40;;;6.23;;
13303;SDS011;6720;51.958;4.540;2023-02-28T04:40:50;8.10;;;6.40;;
13303;SDS011;6720;51.958;4.540;2023-02-28T04:43:47;7.33;;;6.47;;
13303;SDS011;6720;51.958;4.540;2023-02-28T04:46:47;10.10;;;7.37;;
13303;SDS011;6720;51.958;4.540;2023-02-28T04:49:45;12.37;;;9.40;;
13303;SDS011;6720;51.958;4.540;2023-02-28T04:52:35;7.57;;;6.60;;
13303;SDS011;6720;51.958;4.540;2023-02-28T04:55:01;8.87;;;7.53;;
13303;SDS011;6720;51.958;4.540;2023-02-28T04:57:26;7.97;;;7.07;;
13303;SDS011;6720;51.958;4.540;2023-02-28T04:59:52;7.73;;;6.93;;
13303;SDS011;6720;51.958;4.540;2023-02-28T05:02:18;11.20;;;8.07;;
13303;SDS011;6720;51.958;4.540;2023-02-28T05:04:43;8.33;;;7.43;;
13303;SDS011;6720;51.958;4.540;2023-02-28T05:07:09;9.37;;;7.70;;
13303;SDS011;6720;51.958;4.540;2023-02-28T05:09:34;12.80;;;8.87;;
13303;SDS011;6720;51.958;4.540;2023-02-28T05:12:00;10.27;;;7.77;;
13303;SDS011;6720;51.958;4.540;2023-02-28T05:14:25;8.93;;;7.53;;
13303;SDS011;6720;51.958;4.540;2023-02-28T05:16:51;8.73;;;7.50;;
13303;SDS011;6720;51.958;4.540;2023-02-28T05:19:16;10.57;;;8.63;;
13303;SDS011;6720;51.958;4.540;2023-02-28T05:22:00;12.00;;;8.00;;
13303;SDS011;6720;51.958;4.540;2023-02-28T05:24:25;9.13;;;8.00;;
13303;SDS011;6720;51.958;4.540;2023-02-28T05:26:51;9.73;;;8.13;;
13303;SDS011;6720;51.958;4.540;2023-02-28T05:29:18;9.57;;;7.50;;
13303;SDS011;6720;51.958;4.540;2023-02-28T05:31:43;11.50;;;7.37;;
13303;SDS011;6720;51.958;4.540;2023-02-28T05:34:08;10.90;;;8.43;;
13303;SDS011;6720;51.958;4.540;2023-02-28T05:36:36;9.47;;;7.40;;
13303;SDS011;6720;51.958;4.540;2023-02-28T05:39:02;9.20;;;8.13;;
13303;SDS011;6720;51.958;4.540;2023-02-28T05:41:28;9.63;;;7.50;;
13303;SDS011;6720;51.958;4.540;2023-02-28T05:43:53;10.13;;;7.30;;
13303;SDS011;6720;51.958;4.540;2023-02-28T05:46:19;9.10;;;7.27;;
13303;SDS011;6720;51.958;4.540;2023-02-28T05:48:45;11.60;;;7.60;;
13303;SDS011;6720;51.958;4.540;2023-02-28T05:51:12;11.67;;;8.83;;
13303;SDS011;6720;51.958;4.540;2023-02-28T05:53:38;8.20;;;6.93;;
13303;SDS011;6720;51.958;4.540;2023-02-28T05:56:03;11.40;;;8.30;;
13303;SDS011;6720;51.958;4.540;2023-02-28T05:58:29;8.17;;;7.27;;
13303;SDS011;6720;51.958;4.540;2023-02-28T06:00:59;8.20;;;7.17;;
13303;SDS011;6720;51.958;4.540;2023-02-28T06:03:25;9.23;;;6.93;;
13303;SDS011;6720;51.958;4.540;2023-02-28T06:05:51;10.07;;;7.90;;
13303;SDS011;6720;51.958;4.540;2023-02-28T06:08:17;9.00;;;6.37;;
13303;SDS011;6720;51.958;4.540;2023-02-28T06:10:43;7.23;;;6.47;;
13303;SDS011;6720;51.958;4.540;2023-02-28T06:13:08;6.80;;;6.20;;
13303;SDS011;6720;51.958;4.540;2023-02-28T06:15:34;7.30;;;6.57;;
13303;SDS011;6720;51.958;4.540;2023-02-28T06:17:59;8.63;;;5.93;;
13303;SDS011;6720;51.958;4.540;2023-02-28T06:20:25;7.57;;;5.73;;
13303;SDS011;6720;51.958;4.540;2023-02-28T06:22:54;7.77;;;6.07;;
13303;SDS011;6720;51.958;4.540;2023-02-28T06:25:26;7.13;;;5.00;;
13303;SDS011;6720;51.958;4.540;2023-02-28T06:27:53;4.87;;;4.33;;
13303;SDS011;6720;51.958;4.540;2023-02-28T06:30:19;6.57;;;5.43;;
13303;SDS011;6720;51.958;4.540;2023-02-28T06:32:48;4.80;;;4.30;;
13303;SDS011;6720;51.958;4.540;2023-02-28T06:35:14;5.20;;;4.67;;
13303;SDS011;6720;51.958;4.540;2023-02-28T06:37:39;6.00;;;4.77;;
13303;SDS011;6720;51.958;4.540;2023-02-28T06:40:05;5.40;;;4.90;;
13303;SDS011;6720;51.958;4.540;2023-02-28T06:42:31;6.40;;;4.70;;
13303;SDS011;6720;51.958;4.540;2023-02-28T06:44:57;6.03;;;5.37;;
13303;SDS011;6720;51.958;4.540;2023-02-28T06:47:23;6.33;;;5.73;;
13303;SDS011;6720;51.958;4.540;2023-02-28T06:49:48;10.20;;;6.37;;
13303;SDS011;6720;51.958;4.540;2023-02-28T06:52:14;6.00;;;4.90;;
13303;SDS011;6720;51.958;4.540;2023-02-28T06:54:40;6.77;;;5.13;;
13303;SDS011;6720;51.958;4.540;2023-02-28T06:57:06;7.10;;;4.83;;
13303;SDS011;6720;51.958;4.540;2023-02-28T06:59:31;6.43;;;4.20;;
13303;SDS011;6720;51.958;4.540;2023-02-28T07:01:57;7.03;;;5.23;;
13303;SDS011;6720;51.958;4.540;2023-02-28T07:04:23;8.13;;;5.97;;
13303;SDS011;6720;51.958;4.540;2023-02-28T07:06:48;7.43;;;5.30;;
13303;SDS011;6720;51.958;4.540;2023-02-28T07:09:14;7.10;;;5.60;;
13303;SDS011;6720;51.958;4.540;2023-02-28T07:11:40;6.20;;;4.53;;
13303;SDS011;6720;51.958;4.540;2023-02-28T07:14:06;6.27;;;4.53;;
13303;SDS011;6720;51.958;4.540;2023-02-28T07:16:32;6.40;;;5.37;;
13303;SDS011;6720;51.958;4.540;2023-02-28T07:18:58;5.17;;;4.67;;
13303;SDS011;6720;51.958;4.540;2023-02-28T07:21:23;6.10;;;5.10;;
13303;SDS011;6720;51.958;4.540;2023-02-28T07:23:49;6.27;;;5.47;;
13303;SDS011;6720;51.958;4.540;2023-02-28T07:26:16;6.10;;;5.00;;
13303;SDS011;6720;51.958;4.540;2023-02-28T07:28:43;5.70;;;5.10;;
13303;SDS011;6720;51.958;4.540;2023-02-28T07:31:10;6.53;;;5.20;;
13303;SDS011;6720;51.958;4.540;2023-02-28T07:33:36;6.43;;;5.23;;
13303;SDS011;6720;51.958;4.540;2023-02-28T07:36:06;6.33;;;5.20;;
13303;SDS011;6720;51.958;4.540;2023-02-28T07:38:33;6.07;;;5.33;;
13303;SDS011;6720;51.958;4.540;2023-02-28T07:41:00;6.70;;;5.43;;
13303;SDS011;6720;51.958;4.540;2023-02-28T07:43:29;6.63;;;5.20;;
13303;SDS011;6720;51.958;4.540;2023-02-28T07:46:00;7.57;;;5.87;;
13303;SDS011;6720;51.958;4.540;2023-02-28T07:48:28;7.87;;;5.73;;
13303;SDS011;6720;51.958;4.540;2023-02-28T07:50:54;7.53;;;6.50;;
13303;SDS011;6720;51.958;4.540;2023-02-28T07:53:20;7.63;;;6.23;;
13303;SDS011;6720;51.958;4.540;2023-02-28T07:55:46;7.27;;;5.80;;
13303;SDS011;6720;51.958;4.540;2023-02-28T07:58:11;7.50;;;6.40;;
13303;SDS011;6720;51.958;4.540;2023-02-28T08:00:36;8.13;;;6.20;;
13303;SDS011;6720;51.958;4.540;2023-02-28T08:03:02;7.80;;;6.50;;
13303;SDS011;6720;51.958;4.540;2023-02-28T08:05:27;7.53;;;6.10;;
13303;SDS011;6720;51.958;4.540;2023-02-28T08:07:53;7.30;;;6.23;;
13303;SDS011;6720;51.958;4.540;2023-02-28T08:10:18;7.07;;;6.23;;
13303;SDS011;6720;51.958;4.540;2023-02-28T08:12:44;7.90;;;6.50;;
13303;SDS011;6720;51.958;4.540;2023-02-28T08:15:09;8.40;;;7.50;;
13303;SDS011;6720;51.958;4.540;2023-02-28T08:17:35;8.60;;;6.60;;
13303;SDS011;6720;51.958;4.540;2023-02-28T08:20:01;6.97;;;6.37;;
13303;SDS011;6720;51.958;4.540;2023-02-28T08:22:26;7.17;;;6.23;;
13303;SDS011;6720;51.958;4.540;2023-02-28T08:24:51;8.00;;;7.10;;
13303;SDS011;6720;51.958;4.540;2023-02-28T08:27:17;7.93;;;6.83;;
13303;SDS011;6720;51.958;4.540;2023-02-28T08:29:42;7.33;;;6.17;;
13303;SDS011;6720;51.958;4.540;2023-02-28T08:32:08;7.50;;;6.67;;
13303;SDS011;6720;51.958;4.540;2023-02-28T08:34:33;7.60;;;6.63;;
13303;SDS011;6720;51.958;4.540;2023-02-28T08:36:58;7.07;;;6.33;;
13303;SDS011;6720;51.958;4.540;2023-02-28T08:39:27;8.70;;;6.50;;
13303;SDS011;6720;51.958;4.540;2023-02-28T08:41:52;7.30;;;6.60;;
13303;SDS011;6720;51.958;4.540;2023-02-28T08:44:17;7.73;;;6.93;;
13303;SDS011;6720;51.958;4.540;2023-02-28T08:46:43;8.83;;;7.07;;
13303;SDS011;6720;51.958;4.540;2023-02-28T08:49:09;8.93;;;7.33;;
13303;SDS011;6720;51.958;4.540;2023-02-28T08:51:35;7.63;;;6.80;;
13303;SDS011;6720;51.958;4.540;2023-02-28T08:54:00;7.87;;;6.93;;
13303;SDS011;6720;51.958;4.540;2023-02-28T08:56:27;8.47;;;7.17;;
13303;SDS011;6720;51.958;4.540;2023-02-28T08:58:54;8.13;;;7.30;;
13303;SDS011;6720;51.958;4.540;2023-02-28T09:01:25;8.53;;;7.67;;
13303;SDS011;6720;51.958;4.540;2023-02-28T09:03:53;8.10;;;7.30;;
13303;SDS011;6720;51.958;4.540;2023-02-28T09:06:21;8.00;;;7.07;;
13303;SDS011;6720;51.958;4.540;2023-02-28T09:08:48;8.30;;;6.70;;
13303;SDS011;6720;51.958;4.540;2023-02-28T09:11:14;8.97;;;7.40;;
13303;SDS011;6720;51.958;4.540;2023-02-28T09:13:40;7.70;;;6.90;;
13303;SDS011;6720;51.958;4.540;2023-02-28T09:16:06;8.47;;;6.83;;
13303;SDS011;6720;51.958;4.540;2023-02-28T09:18:36;8.57;;;7.03;;
13303;SDS011;6720;51.958;4.540;2023-02-28T09:21:03;7.37;;;6.67;;
13303;SDS011;6720;51.958;4.540;2023-02-28T09:23:30;9.13;;;7.13;;
13303;SDS011;6720;51.958;4.540;2023-02-28T09:25:55;9.43;;;7.33;;
13303;SDS011;6720;51.958;4.540;2023-02-28T09:28:21;7.87;;;6.97;;
13303;SDS011;6720;51.958;4.540;2023-02-28T09:30:48;8.10;;;7.07;;
13303;SDS011;6720;51.958;4.540;2023-02-28T09:33:15;8.43;;;7.00;;
13303;SDS011;6720;51.958;4.540;2023-02-28T09:35:42;8.53;;;6.90;;
13303;SDS011;6720;51.958;4.540;2023-02-28T09:38:08;8.37;;;6.83;;
13303;SDS011;6720;51.958;4.540;2023-02-28T09:40:38;8.90;;;7.63;;
13303;SDS011;6720;51.958;4.540;2023-02-28T09:43:10;9.37;;;7.87;;
13303;SDS011;6720;51.958;4.540;2023-02-28T09:45:39;7.97;;;6.97;;
13303;SDS011;6720;51.958;4.540;2023-02-28T09:48:11;7.13;;;6.40;;
13303;SDS011;6720;51.958;4.540;2023-02-28T09:50:41;7.33;;;6.43;;
13303;SDS011;6720;51.958;4.540;2023-02-28T09:53:31;7.03;;;6.30;;
13303;SDS011;6720;51.958;4.540;2023-02-28T09:56:08;9.30;;;7.33;;
13303;SDS011;6720;51.958;4.540;2023-02-28T10:01:09;8.20;;;6.10;;
13303;SDS011;6720;51.958;4.540;2023-02-28T10:03:47;9.73;;;6.03;;
13303;SDS011;6720;51.958;4.540;2023-02-28T10:06:29;7.83;;;5.43;;
13303;SDS011;6720;51.958;4.540;2023-02-28T10:09:04;10.53;;;7.43;;
13303;SDS011;6720;51.958;4.540;2023-02-28T10:11:38;5.87;;;5.33;;
13303;SDS011;6720;51.958;4.540;2023-02-28T10:14:06;5.80;;;5.20;;
13303;SDS011;6720;51.958;4.540;2023-02-28T10:22:23;6.03;;;5.37;;
13303;SDS011;6720;51.958;4.540;2023-02-28T10:24:53;6.93;;;5.10;;
13303;SDS011;6720;51.958;4.540;2023-02-28T10:27:25;8.43;;;5.40;;
13303;SDS011;6720;51.958;4.540;2023-02-28T10:29:55;7.40;;;6.07;;
13303;SDS011;6720;51.958;4.540;2023-02-28T10:37:41;18.60;;;13.20;;
13303;SDS011;6720;51.958;4.540;2023-02-28T10:42:45;5.83;;;5.33;;
13303;SDS011;6720;51.958;4.540;2023-02-28T10:45:24;7.03;;;5.60;;
13303;SDS011;6720;51.958;4.540;2023-02-28T10:53:14;5.03;;;4.53;;
13303;SDS011;6720;51.958;4.540;2023-02-28T10:55:40;5.67;;;5.00;;
13303;SDS011;6720;51.958;4.540;2023-02-28T10:58:22;4.70;;;4.30;;
13303;SDS011;6720;51.958;4.540;2023-02-28T11:00:49;5.13;;;4.70;;
13303;SDS011;6720;51.958;4.540;2023-02-28T11:05:56;5.27;;;4.50;;
13303;SDS011;6720;51.958;4.540;2023-02-28T11:08:22;5.30;;;4.33;;
13303;SDS011;6720;51.958;4.540;2023-02-28T11:10:54;6.03;;;5.10;;
13303;SDS011;6720;51.958;4.540;2023-02-28T11:13:25;5.00;;;4.50;;
13303;SDS011;6720;51.958;4.540;2023-02-28T11:15:54;4.10;;;3.70;;
13303;SDS011;6720;51.958;4.540;2023-02-28T11:20:48;4.60;;;3.63;;
13303;SDS011;6720;51.958;4.540;2023-02-28T11:23:15;3.90;;;3.60;;
13303;SDS011;6720;51.958;4.540;2023-02-28T11:25:54;5.63;;;5.03;;
13303;SDS011;6720;51.958;4.540;2023-02-28T11:31:15;3.50;;;3.20;;
13303;SDS011;6720;51.958;4.540;2023-02-28T11:33:52;3.83;;;3.43;;
13303;SDS011;6720;51.958;4.540;2023-02-28T11:38:53;4.07;;;3.43;;
13303;SDS011;6720;51.958;4.540;2023-02-28T11:41:32;3.77;;;3.50;;
13303;SDS011;6720;51.958;4.540;2023-02-28T11:49:31;3.60;;;3.30;;
13303;SDS011;6720;51.958;4.540;2023-02-28T11:52:10;3.50;;;3.20;;
13303;SDS011;6720;51.958;4.540;2023-02-28T12:00:08;3.40;;;3.20;;
13303;SDS011;6720;51.958;4.540;2023-02-28T12:05:32;5.13;;;4.70;;
13303;SDS011;6720;51.958;4.540;2023-02-28T12:19:23;4.40;;;4.00;;
13303;SDS011;6720;51.958;4.540;2023-02-28T12:25:04;4.50;;;4.10;;
13303;SDS011;6720;51.958;4.540;2023-02-28T12:27:38;3.73;;;3.43;;
13303;SDS011;6720;51.958;4.540;2023-02-28T12:30:17;3.93;;;3.50;;
13303;SDS011;6720;51.958;4.540;2023-02-28T12:32:44;3.90;;;3.60;;
13303;SDS011;6720;51.958;4.540;2023-02-28T12:35:14;4.47;;;3.67;;
13303;SDS011;6720;51.958;4.540;2023-02-28T12:37:50;4.07;;;3.77;;
13303;SDS011;6720;51.958;4.540;2023-02-28T12:40:22;3.57;;;3.27;;
13303;SDS011;6720;51.958;4.540;2023-02-28T12:42:51;3.57;;;3.27;;
13303;SDS011;6720;51.958;4.540;2023-02-28T12:45:23;5.03;;;4.53;;
13303;SDS011;6720;51.958;4.540;2023-02-28T12:47:57;3.30;;;3.00;;
13303;SDS011;6720;51.958;4.540;2023-02-28T12:50:26;5.20;;;4.33;;
13303;SDS011;6720;51.958;4.540;2023-02-28T12:52:56;3.70;;;3.40;;
13303;SDS011;6720;51.958;4.540;2023-02-28T12:55:33;4.93;;;3.60;;
13303;SDS011;6720;51.958;4.540;2023-02-28T12:58:27;4.10;;;3.67;;
13303;SDS011;6720;51.958;4.540;2023-02-28T13:06:14;4.57;;;3.70;;
13303;SDS011;6720;51.958;4.540;2023-02-28T13:09:03;3.83;;;3.53;;
13303;SDS011;6720;51.958;4.540;2023-02-28T13:11:40;3.30;;;3.07;;
13303;SDS011;6720;51.958;4.540;2023-02-28T13:16:57;3.20;;;2.90;;
13303;SDS011;6720;51.958;4.540;2023-02-28T13:19:34;4.40;;;3.30;;
13303;SDS011;6720;51.958;4.540;2023-02-28T13:22:03;3.70;;;3.40;;
13303;SDS011;6720;51.958;4.540;2023-02-28T13:29:36;3.73;;;3.43;;
13303;SDS011;6720;51.958;4.540;2023-02-28T13:34:32;3.23;;;3.00;;
13303;SDS011;6720;51.958;4.540;2023-02-28T13:47:38;3.53;;;3.23;;
13303;SDS011;6720;51.958;4.540;2023-02-28T13:55:25;4.17;;;3.50;;
13303;SDS011;6720;51.958;4.540;2023-02-28T14:00:54;3.10;;;2.90;;
13303;SDS011;6720;51.958;4.540;2023-02-28T14:08:54;5.07;;;3.87;;
13303;SDS011;6720;51.958;4.540;2023-02-28T14:11:29;4.47;;;4.07;;
13303;SDS011;6720;51.958;4.540;2023-02-28T14:13:57;3.57;;;3.37;;
13303;SDS011;6720;51.958;4.540;2023-02-28T14:16:23;4.73;;;4.00;;
13303;SDS011;6720;51.958;4.540;2023-02-28T14:21:21;4.13;;;3.40;;
13303;SDS011;6720;51.958;4.540;2023-02-28T14:37:58;3.70;;;3.40;;
13303;SDS011;6720;51.958;4.540;2023-02-28T14:40:29;3.77;;;3.47;;
13303;SDS011;6720;51.958;4.540;2023-02-28T14:42:58;3.30;;;3.10;;
13303;SDS011;6720;51.958;4.540;2023-02-28T14:45:26;3.60;;;3.30;;
13303;SDS011;6720;51.958;4.540;2023-02-28T14:47:55;4.70;;;3.40;;
13303;SDS011;6720;51.958;4.540;2023-02-28T14:50:30;3.50;;;3.20;;
13303;SDS011;6720;51.958;4.540;2023-02-28T14:52:58;4.40;;;3.50;;
13303;SDS011;6720;51.958;4.540;2023-02-28T14:55:46;3.57;;;3.27;;
13303;SDS011;6720;51.958;4.540;2023-02-28T14:58:21;3.87;;;3.57;;
13303;SDS011;6720;51.958;4.540;2023-02-28T15:00:48;4.50;;;3.50;;
13303;SDS011;6720;51.958;4.540;2023-02-28T15:03:22;3.67;;;3.37;;
13303;SDS011;6720;51.958;4.540;2023-02-28T15:05:56;4.17;;;3.60;;
13303;SDS011;6720;51.958;4.540;2023-02-28T15:08:23;3.57;;;3.20;;
13303;SDS011;6720;51.958;4.540;2023-02-28T15:13:35;3.60;;;3.10;;
13303;SDS011;6720;51.958;4.540;2023-02-28T15:16:06;3.60;;;3.03;;
13303;SDS011;6720;51.958;4.540;2023-02-28T15:18:39;3.30;;;3.00;;
13303;SDS011;6720;51.958;4.540;2023-02-28T15:21:10;3.27;;;2.97;;
13303;SDS011;6720;51.958;4.540;2023-02-28T15:23:38;3.73;;;3.43;;
13303;SDS011;6720;51.958;4.540;2023-02-28T15:26:10;4.23;;;3.83;;
13303;SDS011;6720;51.958;4.540;2023-02-28T15:28:40;3.33;;;3.03;;
13303;SDS011;6720;51.958;4.540;2023-02-28T15:31:18;3.93;;;3.63;;
13303;SDS011;6720;51.958;4.540;2023-02-28T15:33:56;3.70;;;3.40;;
13303;SDS011;6720;51.958;4.540;2023-02-28T15:36:28;3.53;;;3.20;;
13303;SDS011;6720;51.958;4.540;2023-02-28T15:38:56;3.77;;;3.30;;
13303;SDS011;6720;51.958;4.540;2023-02-28T15:41:26;3.27;;;3.07;;
13303;SDS011;6720;51.958;4.540;2023-02-28T15:49:30;3.40;;;3.10;;
13303;SDS011;6720;51.958;4.540;2023-02-28T15:52:02;3.83;;;3.10;;
13303;SDS011;6720;51.958;4.540;2023-02-28T15:54:36;6.90;;;3.30;;
13303;SDS011;6720;51.958;4.540;2023-02-28T15:57:05;5.17;;;3.23;;
13303;SDS011;6720;51.958;4.540;2023-02-28T15:59:35;6.00;;;3.23;;
13303;SDS011;6720;51.958;4.540;2023-02-28T16:02:28;3.93;;;3.40;;
13303;SDS011;6720;51.958;4.540;2023-02-28T16:05:18;3.80;;;3.50;;
13303;SDS011;6720;51.958;4.540;2023-02-28T16:07:52;7.90;;;5.47;;
13303;SDS011;6720;51.958;4.540;2023-02-28T16:10:18;3.90;;;3.50;;
13303;SDS011;6720;51.958;4.540;2023-02-28T16:12:43;3.80;;;3.40;;
13303;SDS011;6720;51.958;4.540;2023-02-28T16:15:17;4.00;;;3.60;;
13303;SDS011;6720;51.958;4.540;2023-02-28T16:17:45;4.40;;;4.00;;
13303;SDS011;6720;51.958;4.540;2023-02-28T16:20:12;4.53;;;4.13;;
13303;SDS011;6720;51.958;4.540;2023-02-28T16:22:42;4.37;;;4.00;;
13303;SDS011;6720;51.958;4.540;2023-02-28T16:25:33;4.77;;;4.27;;
13303;SDS011;6720;51.958;4.540;2023-02-28T16:28:01;4.40;;;4.00;;
13303;SDS011;6720;51.958;4.540;2023-02-28T16:30:28;4.67;;;3.80;;
13303;SDS011;6720;51.958;4.540;2023-02-28T16:32:56;5.97;;;3.60;;
13303;SDS011;6720;51.958;4.540;2023-02-28T16:35:22;6.50;;;4.33;;
13303;SDS011;6720;51.958;4.540;2023-02-28T16:37:48;4.20;;;3.87;;
13303;SDS011;6720;51.958;4.540;2023-02-28T16:40:17;4.37;;;3.93;;
13303;SDS011;6720;51.958;4.540;2023-02-28T16:42:46;4.23;;;3.83;;
13303;SDS011;6720;51.958;4.540;2023-02-28T16:45:17;4.70;;;4.30;;
13303;SDS011;6720;51.958;4.540;2023-02-28T16:47:46;6.83;;;6.03;;
13303;SDS011;6720;51.958;4.540;2023-02-28T16:50:12;4.90;;;4.40;;
13303;SDS011;6720;51.958;4.540;2023-02-28T16:52:48;4.70;;;4.20;;
13303;SDS011;6720;51.958;4.540;2023-02-28T16:55:14;4.70;;;4.20;;
13303;SDS011;6720;51.958;4.540;2023-02-28T16:57:40;5.13;;;4.30;;
13303;SDS011;6720;51.958;4.540;2023-02-28T17:00:08;4.37;;;4.07;;
13303;SDS011;6720;51.958;4.540;2023-02-28T17:02:37;4.30;;;3.90;;
13303;SDS011;6720;51.958;4.540;2023-02-28T17:05:03;5.00;;;4.53;;
13303;SDS011;6720;51.958;4.540;2023-02-28T17:07:28;4.63;;;4.20;;
13303;SDS011;6720;51.958;4.540;2023-02-28T17:09:54;4.47;;;4.13;;
13303;SDS011;6720;51.958;4.540;2023-02-28T17:12:19;4.50;;;4.10;;
13303;SDS011;6720;51.958;4.540;2023-02-28T17:14:45;5.57;;;4.70;;
13303;SDS011;6720;51.958;4.540;2023-02-28T17:17:15;5.00;;;4.47;;
13303;SDS011;6720;51.958;4.540;2023-02-28T17:19:43;6.10;;;5.30;;
13303;SDS011;6720;51.958;4.540;2023-02-28T17:22:09;5.40;;;4.90;;
13303;SDS011;6720;51.958;4.540;2023-02-28T17:24:35;5.20;;;4.70;;
13303;SDS011;6720;51.958;4.540;2023-02-28T17:27:00;5.97;;;5.17;;
13303;SDS011;6720;51.958;4.540;2023-02-28T17:29:26;5.93;;;5.40;;
13303;SDS011;6720;51.958;4.540;2023-02-28T17:31:52;6.17;;;5.13;;
13303;SDS011;6720;51.958;4.540;2023-02-28T17:34:18;5.70;;;4.97;;
13303;SDS011;6720;51.958;4.540;2023-02-28T17:36:45;5.60;;;5.10;;
13303;SDS011;6720;51.958;4.540;2023-02-28T17:39:12;5.50;;;4.93;;
13303;SDS011;6720;51.958;4.540;2023-02-28T17:41:44;5.67;;;5.17;;
13303;SDS011;6720;51.958;4.540;2023-02-28T17:44:10;5.70;;;5.20;;
13303;SDS011;6720;51.958;4.540;2023-02-28T17:46:36;5.57;;;5.03;;
13303;SDS011;6720;51.958;4.540;2023-02-28T17:49:02;5.87;;;5.37;;
13303;SDS011;6720;51.958;4.540;2023-02-28T17:51:29;5.83;;;5.13;;
13303;SDS011;6720;51.958;4.540;2023-02-28T17:53:54;5.60;;;5.10;;
13303;SDS011;6720;51.958;4.540;2023-02-28T17:56:24;5.77;;;5.23;;
13303;SDS011;6720;51.958;4.540;2023-02-28T17:58:52;6.43;;;5.80;;
13303;SDS011;6720;51.958;4.540;2023-02-28T18:01:19;6.20;;;5.60;;
13303;SDS011;6720;51.958;4.540;2023-02-28T18:03:46;12.20;;;9.10;;
13303;SDS011;6720;51.958;4.540;2023-02-28T18:06:16;10.87;;;8.00;;
13303;SDS011;6720;51.958;4.540;2023-02-28T18:08:46;9.57;;;7.40;;
13303;SDS011;6720;51.958;4.540;2023-02-28T18:11:12;7.37;;;5.50;;
13303;SDS011;6720;51.958;4.540;2023-02-28T18:13:49;5.93;;;5.43;;